createdAt,value
2018-12-18T00:00:45.720Z,3.50
2018-12-18T00:03:11.668Z,3.35
2018-12-18T00:05:37.500Z,2.77
2018-12-18T00:08:03.623Z,3.90
2018-12-18T00:10:35.646Z,2.90
2018-12-18T00:13:01.531Z,3.12
2018-12-18T00:15:27.396Z,3.30
2018-12-18T00:17:53.316Z,3.17
2018-12-18T00:20:19.193Z,3.43
2018-12-18T00:22:45.035Z,2.70
2018-12-18T00:25:10.948Z,3.03
2018-12-18T00:27:36.821Z,3.20
2018-12-18T00:30:03.827Z,3.00
2018-12-18T00:32:29.738Z,2.80
2018-12-18T00:34:55.583Z,2.67
2018-12-18T00:37:21.455Z,2.27
2018-12-18T00:39:47.600Z,2.00
2018-12-18T00:42:13.476Z,3.08
2018-12-18T00:44:39.431Z,1.97
2018-12-18T00:47:05.328Z,2.10
2018-12-18T00:49:31.206Z,2.37
2018-12-18T00:51:57.110Z,2.13
2018-12-18T00:54:23.101Z,2.10
2018-12-18T00:56:49.006Z,2.22
2018-12-18T00:59:14.915Z,2.47
2018-12-18T01:01:42.841Z,2.53
2018-12-18T01:04:08.754Z,2.52
2018-12-18T01:06:34.617Z,2.90
2018-12-18T01:09:00.616Z,2.70
2018-12-18T01:11:27.688Z,3.40
2018-12-18T01:13:53.582Z,2.62
2018-12-18T01:16:19.440Z,2.27
2018-12-18T01:18:45.431Z,2.63
2018-12-18T01:21:11.322Z,2.00
2018-12-18T01:23:43.612Z,2.47
2018-12-18T01:26:09.592Z,2.65
2018-12-18T01:28:35.527Z,2.45
2018-12-18T01:31:01.434Z,2.70
2018-12-18T01:33:28.938Z,2.63
2018-12-18T01:35:54.863Z,2.15
2018-12-18T01:38:24.013Z,2.80
2018-12-18T01:40:49.940Z,2.77
2018-12-18T01:43:22.216Z,3.20
2018-12-18T01:45:48.129Z,2.50
2018-12-18T01:48:14.047Z,2.60
2018-12-18T01:50:40.170Z,2.33
2018-12-18T01:53:06.074Z,2.70
2018-12-18T01:55:31.976Z,3.10
2018-12-18T01:57:58.552Z,3.60
2018-12-18T02:00:24.647Z,3.27
2018-12-18T02:02:50.574Z,3.25
2018-12-18T02:05:19.578Z,3.63
2018-12-18T02:07:45.512Z,3.22
2018-12-18T02:10:14.293Z,3.30
2018-12-18T02:12:40.167Z,3.85
2018-12-18T02:15:10.021Z,3.70
2018-12-18T02:17:35.984Z,3.40
2018-12-18T02:20:05.966Z,3.07
2018-12-18T02:22:31.919Z,3.45
2018-12-18T02:24:58.095Z,3.73
2018-12-18T02:27:23.999Z,3.98
2018-12-18T02:29:50.014Z,3.05
2018-12-18T02:32:15.879Z,3.90
2018-12-18T02:34:41.793Z,2.97
2018-12-18T02:37:11.598Z,3.73
2018-12-18T02:39:37.464Z,3.58
2018-12-18T02:42:06.507Z,3.10
2018-12-18T02:44:32.409Z,3.52
2018-12-18T02:46:59.227Z,3.00
2018-12-18T02:49:25.134Z,2.87
2018-12-18T02:51:53.822Z,3.40
2018-12-18T02:54:19.701Z,3.15
2018-12-18T02:59:16.644Z,4.03
2018-12-18T03:01:43.622Z,2.93
2018-12-18T03:04:09.518Z,2.47
2018-12-18T03:06:35.429Z,2.93
2018-12-18T03:09:01.446Z,3.27
2018-12-18T03:11:27.324Z,2.40
2018-12-18T03:13:56.397Z,2.63
2018-12-18T03:16:22.443Z,2.25
2018-12-18T03:18:50.230Z,2.35
2018-12-18T03:21:16.271Z,2.20
2018-12-18T03:23:46.037Z,2.70
2018-12-18T03:26:11.936Z,3.00
2018-12-18T03:28:39.691Z,2.67
2018-12-18T03:31:05.601Z,2.27
2018-12-18T03:33:34.369Z,2.57
2018-12-18T03:36:00.297Z,3.45
2018-12-18T03:38:29.223Z,4.40
2018-12-18T03:40:55.165Z,4.55
2018-12-18T03:43:21.103Z,4.10
2018-12-18T03:45:46.980Z,4.30
2018-12-18T03:48:12.873Z,4.90
2018-12-18T03:50:40.548Z,3.57
2018-12-18T03:53:06.472Z,4.45
2018-12-18T03:55:35.135Z,4.70
2018-12-18T03:58:01.270Z,3.80
2018-12-18T04:00:29.803Z,4.30
2018-12-18T04:02:55.813Z,4.22
2018-12-18T04:05:25.207Z,5.08
2018-12-18T04:07:51.089Z,3.90
2018-12-18T04:10:20.302Z,3.90
2018-12-18T04:12:46.259Z,3.67
2018-12-18T04:15:14.135Z,3.40
2018-12-18T04:17:40.000Z,4.53
2018-12-18T04:20:05.934Z,3.17
2018-12-18T04:22:31.852Z,3.93
2018-12-18T04:24:57.792Z,2.90
2018-12-18T04:27:27.131Z,3.47
2018-12-18T04:29:53.044Z,3.50
2018-12-18T04:32:20.927Z,4.07
2018-12-18T04:34:46.848Z,3.20
2018-12-18T04:37:15.878Z,3.57
2018-12-18T04:39:41.749Z,4.00
2018-12-18T04:42:11.182Z,4.00
2018-12-18T04:44:37.127Z,3.75
2018-12-18T04:47:04.879Z,3.40
2018-12-18T04:49:31.091Z,4.20
2018-12-18T04:52:00.641Z,4.15
2018-12-18T04:54:26.539Z,4.42
2018-12-18T04:56:52.398Z,3.10
2018-12-18T04:59:18.349Z,3.10
2018-12-18T05:01:44.196Z,3.00
2018-12-18T05:04:11.380Z,3.30
2018-12-18T05:06:37.280Z,3.90
2018-12-18T05:09:06.282Z,3.33
2018-12-18T05:11:32.132Z,3.37
2018-12-18T05:14:00.461Z,3.40
2018-12-18T05:16:26.343Z,3.17
2018-12-18T05:18:55.474Z,3.40
2018-12-18T05:21:21.336Z,3.87
2018-12-18T05:23:50.160Z,3.10
2018-12-18T05:26:16.080Z,2.77
2018-12-18T05:28:44.819Z,3.53
2018-12-18T05:31:10.722Z,3.98
2018-12-18T05:33:36.587Z,4.07
2018-12-18T05:36:02.545Z,3.93
2018-12-18T05:38:28.439Z,3.97
2018-12-18T05:40:58.123Z,4.17
2018-12-18T05:43:24.048Z,3.60
2018-12-18T05:45:53.083Z,4.00
2018-12-18T05:48:18.966Z,4.28
2018-12-18T05:50:45.876Z,4.17
2018-12-18T05:53:11.824Z,3.95
2018-12-18T05:55:40.283Z,3.60
2018-12-18T05:58:07.242Z,4.20
2018-12-18T06:00:35.127Z,3.33
2018-12-18T06:03:01.022Z,3.50
2018-12-18T06:05:30.146Z,3.60
2018-12-18T06:07:56.103Z,4.17
2018-12-18T06:10:21.980Z,3.60
2018-12-18T06:12:47.904Z,3.63
2018-12-18T06:15:13.817Z,3.73
2018-12-18T06:17:43.479Z,3.90
2018-12-18T06:20:10.032Z,3.10
2018-12-18T06:22:37.432Z,3.25
2018-12-18T06:25:03.499Z,2.90
2018-12-18T06:27:33.069Z,2.52
2018-12-18T06:29:58.997Z,3.30
2018-12-18T06:32:26.572Z,2.50
2018-12-18T06:34:52.477Z,2.98
2018-12-18T06:37:22.290Z,3.00
2018-12-18T06:39:48.186Z,3.25
2018-12-18T06:42:15.229Z,3.53
2018-12-18T06:44:41.089Z,4.22
2018-12-18T06:47:07.075Z,3.60
2018-12-18T06:49:32.990Z,3.20
2018-12-18T06:51:58.997Z,3.37
2018-12-18T06:54:28.238Z,4.00
2018-12-18T06:56:54.085Z,4.75
2018-12-18T06:59:22.901Z,4.20
2018-12-18T07:01:48.967Z,3.77
2018-12-18T07:04:16.778Z,3.67
2018-12-18T07:06:42.694Z,4.95
2018-12-18T07:09:12.516Z,3.43
2018-12-18T07:11:38.368Z,4.10
2018-12-18T07:14:07.295Z,4.30
2018-12-18T07:16:33.629Z,7.10
2018-12-18T07:19:01.040Z,8.33
2018-12-18T07:21:26.964Z,6.55
2018-12-18T07:23:52.953Z,6.20
2018-12-18T07:26:18.876Z,6.15
2018-12-18T07:28:44.875Z,7.10
2018-12-18T07:31:13.880Z,7.17
2018-12-18T07:33:39.719Z,7.97
2018-12-18T07:36:08.765Z,6.73
2018-12-18T07:38:34.684Z,6.95
2018-12-18T07:41:02.941Z,7.90
2018-12-18T07:43:28.762Z,5.80
2018-12-18T07:45:58.360Z,4.70
2018-12-18T07:48:24.242Z,4.97
2018-12-18T07:50:52.018Z,5.20
2018-12-18T07:53:18.036Z,6.87
2018-12-18T07:55:45.806Z,8.13
2018-12-18T07:58:11.962Z,9.38
2018-12-18T08:00:37.945Z,7.80
2018-12-18T08:03:04.114Z,10.93
2018-12-18T08:05:30.202Z,9.75
2018-12-18T08:08:02.594Z,11.08
2018-12-18T08:10:28.459Z,7.40
2018-12-18T08:12:54.315Z,8.47
2018-12-18T08:15:20.192Z,9.50
2018-12-18T08:17:47.207Z,11.90
2018-12-18T08:20:13.090Z,9.63
2018-12-18T08:22:42.775Z,9.80
2018-12-18T08:25:08.756Z,6.35
2018-12-18T08:27:37.734Z,4.03
2018-12-18T08:30:06.493Z,5.20
2018-12-18T08:32:32.545Z,3.50
2018-12-18T08:34:58.455Z,4.10
2018-12-18T08:37:24.352Z,5.03
2018-12-18T08:39:50.295Z,4.17
2018-12-18T08:42:16.189Z,3.80
2018-12-18T08:44:43.845Z,4.30
2018-12-18T08:47:09.784Z,3.73
2018-12-18T08:49:39.185Z,4.10
2018-12-18T08:52:05.076Z,3.60
2018-12-18T08:54:32.528Z,4.73
2018-12-18T08:56:58.438Z,4.40
2018-12-18T08:59:28.216Z,3.40
2018-12-18T09:01:54.175Z,3.20
2018-12-18T09:04:23.049Z,3.87
2018-12-18T09:06:49.338Z,2.67
2018-12-18T09:09:16.977Z,3.60
2018-12-18T09:11:42.905Z,4.63
2018-12-18T09:14:08.779Z,4.40
2018-12-18T09:16:41.117Z,4.70
2018-12-18T09:19:06.979Z,10.20
2018-12-18T09:21:32.853Z,9.23
2018-12-18T09:23:58.785Z,6.13
2018-12-18T09:26:24.973Z,4.40
2018-12-18T09:28:50.885Z,4.80
2018-12-18T09:31:18.072Z,5.17
2018-12-18T09:33:43.982Z,4.83
2018-12-18T09:36:13.984Z,5.07
2018-12-18T09:38:46.048Z,5.10
2018-12-18T09:41:28.979Z,3.92
2018-12-18T09:43:57.898Z,3.37
2018-12-18T09:46:23.762Z,3.50
2018-12-18T09:48:49.664Z,3.33
2018-12-18T09:51:15.556Z,2.73
2018-12-18T09:53:41.469Z,2.70
2018-12-18T09:56:07.375Z,4.10
2018-12-18T09:58:33.315Z,3.13
2018-12-18T10:00:59.180Z,3.20
2018-12-18T10:03:25.082Z,3.40
2018-12-18T10:05:56.254Z,2.57
2018-12-18T10:08:18.859Z,3.40
2018-12-18T10:10:44.769Z,3.10
2018-12-18T10:13:10.676Z,3.73
2018-12-18T10:15:36.575Z,2.47
2018-12-18T10:18:02.481Z,2.87
2018-12-18T10:20:28.383Z,2.90
2018-12-18T10:22:54.241Z,2.47
2018-12-18T10:25:20.155Z,2.70
2018-12-18T10:27:46.069Z,2.63
2018-12-18T10:30:11.995Z,2.73
2018-12-18T10:32:37.886Z,2.50
2018-12-18T10:35:05.087Z,2.30
2018-12-18T10:37:31.206Z,2.45
2018-12-18T10:39:57.085Z,2.85
2018-12-18T10:42:22.982Z,3.30
2018-12-18T10:44:48.868Z,2.90
2018-12-18T10:47:14.784Z,2.97
2018-12-18T10:49:44.305Z,2.97
2018-12-18T10:52:10.178Z,3.60
2018-12-18T10:54:38.092Z,3.20
2018-12-18T10:57:03.956Z,2.52
2018-12-18T10:59:34.143Z,3.47
2018-12-18T11:02:02.038Z,3.17
2018-12-18T11:04:27.966Z,3.80
2018-12-18T11:06:53.804Z,3.23
2018-12-18T11:09:19.675Z,3.30
2018-12-18T11:11:45.535Z,3.90
2018-12-18T11:14:11.514Z,3.67
2018-12-18T11:16:40.604Z,5.57
2018-12-18T11:19:06.468Z,4.10
2018-12-18T11:21:34.423Z,3.50
2018-12-18T11:24:00.411Z,4.20
2018-12-18T11:26:28.264Z,3.98
2018-12-18T11:28:54.167Z,3.95
2018-12-18T11:31:23.047Z,4.67
2018-12-18T11:33:48.956Z,4.15
2018-12-18T11:36:17.898Z,5.37
2018-12-18T11:38:43.852Z,6.20
2018-12-18T11:41:09.743Z,4.33
2018-12-18T11:43:35.633Z,3.40
2018-12-18T11:46:01.560Z,3.77
2018-12-18T11:48:31.308Z,4.17
2018-12-18T11:50:57.199Z,3.85
2018-12-18T11:53:24.903Z,3.20
2018-12-18T11:55:50.787Z,3.17
2018-12-18T11:58:20.518Z,4.00
2018-12-18T12:00:46.931Z,3.92
2018-12-18T12:03:14.111Z,3.20
2018-12-18T12:05:39.947Z,3.47
2018-12-18T12:08:11.031Z,3.07
2018-12-18T12:10:36.880Z,3.05
2018-12-18T12:13:03.542Z,3.00
2018-12-18T12:15:29.482Z,2.60
2018-12-18T12:17:55.815Z,2.77
2018-12-18T12:20:21.764Z,3.50
2018-12-18T12:22:47.626Z,2.33
2018-12-18T12:25:15.809Z,2.97
2018-12-18T12:27:47.691Z,2.47
2018-12-18T12:30:13.581Z,2.72
2018-12-18T12:32:39.663Z,2.30
2018-12-18T12:35:05.725Z,1.95
2018-12-18T12:37:32.094Z,3.00
2018-12-18T12:39:59.734Z,4.17
2018-12-18T12:42:25.584Z,2.58
2018-12-18T12:44:55.509Z,2.60
2018-12-18T12:47:21.404Z,2.70
2018-12-18T12:49:49.110Z,3.53
2018-12-18T12:52:15.068Z,3.12
2018-12-18T12:54:40.960Z,3.07
2018-12-18T12:57:06.931Z,2.90
2018-12-18T12:59:32.842Z,2.07
2018-12-18T13:02:01.939Z,2.77
2018-12-18T13:04:28.300Z,3.40
2018-12-18T13:06:55.502Z,3.62
2018-12-18T13:11:53.598Z,3.70
2018-12-18T13:14:19.475Z,2.80
2018-12-18T13:16:45.374Z,2.83
2018-12-18T13:19:11.259Z,2.70
2018-12-18T13:21:40.402Z,3.13
2018-12-18T13:24:06.296Z,2.30
2018-12-18T13:26:35.266Z,5.13
2018-12-18T13:29:01.269Z,3.05
2018-12-18T13:31:27.272Z,2.40
2018-12-18T13:33:53.145Z,3.05
2018-12-18T13:36:18.999Z,2.50
2018-12-18T13:38:46.211Z,2.23
2018-12-18T13:41:12.115Z,2.30
2018-12-18T13:43:41.957Z,2.35
2018-12-18T13:46:07.877Z,2.40
2018-12-18T13:48:35.490Z,3.00
2018-12-18T13:51:01.436Z,2.45
2018-12-18T13:53:31.075Z,2.50
2018-12-18T13:55:56.979Z,2.20
2018-12-18T13:58:25.885Z,1.70
2018-12-18T14:00:51.771Z,1.82
2018-12-18T14:03:19.641Z,2.47
2018-12-18T14:05:45.541Z,2.00
2018-12-18T14:08:11.420Z,2.20
2018-12-18T14:10:37.311Z,2.20
2018-12-18T14:13:03.639Z,3.03
2018-12-18T14:15:31.791Z,2.05
2018-12-18T14:17:57.727Z,2.08
2018-12-18T14:20:26.823Z,1.87
2018-12-18T14:22:52.731Z,2.40
2018-12-18T14:25:20.511Z,2.20
2018-12-18T14:27:46.397Z,1.98
2018-12-18T14:30:16.093Z,2.50
2018-12-18T14:32:41.987Z,2.00
2018-12-18T14:35:11.020Z,2.40
2018-12-18T14:37:36.898Z,2.12
2018-12-18T14:40:09.867Z,1.80
2018-12-18T14:42:35.863Z,2.00
2018-12-18T14:45:01.926Z,2.40
2018-12-18T14:47:27.805Z,1.95
2018-12-18T14:49:53.855Z,2.97
2018-12-18T14:52:19.729Z,2.60
2018-12-18T14:54:45.783Z,2.50
2018-12-18T14:57:11.681Z,2.35
2018-12-18T14:59:37.687Z,2.23
2018-12-18T15:02:06.907Z,2.37
2018-12-18T15:04:32.746Z,2.35
2018-12-18T15:07:03.074Z,2.47
2018-12-18T15:09:28.621Z,2.20
2018-12-18T15:11:55.427Z,2.70
2018-12-18T15:14:22.258Z,2.22
2018-12-18T15:16:50.146Z,3.20
2018-12-18T15:19:16.029Z,2.70
2018-12-18T15:21:41.977Z,3.13
2018-12-18T15:24:07.948Z,3.05
2018-12-18T15:26:33.878Z,3.17
2018-12-18T15:29:03.261Z,2.67
2018-12-18T15:31:29.673Z,2.77
2018-12-18T15:33:56.917Z,2.25
2018-12-18T15:36:22.777Z,2.50
2018-12-18T15:38:53.482Z,2.33
2018-12-18T15:41:19.325Z,3.00
2018-12-18T15:43:46.262Z,3.23
2018-12-18T15:46:12.138Z,2.92
2018-12-18T15:48:41.831Z,2.77
2018-12-18T15:51:07.691Z,3.55
2018-12-18T15:53:35.573Z,3.70
2018-12-18T15:56:01.460Z,3.70
2018-12-18T15:58:27.296Z,3.17
2018-12-18T16:00:53.227Z,2.57
2018-12-18T16:03:19.128Z,3.50
2018-12-18T16:05:48.536Z,3.03
2018-12-18T16:08:16.057Z,2.22
2018-12-18T16:10:41.924Z,2.67
2018-12-18T16:13:07.827Z,2.80
2018-12-18T16:15:36.458Z,2.83
2018-12-18T16:18:02.407Z,2.87
2018-12-18T16:20:30.693Z,2.57
2018-12-18T16:22:56.602Z,2.22
2018-12-18T16:27:53.578Z,2.90
2018-12-18T16:30:20.812Z,2.20
2018-12-18T16:32:46.691Z,3.02
2018-12-18T16:35:12.554Z,3.00
2018-12-18T16:37:38.425Z,2.80
2018-12-18T16:40:11.407Z,2.77
2018-12-18T16:42:37.421Z,2.83
2018-12-18T16:45:03.977Z,2.52
2018-12-18T16:47:29.849Z,2.27
2018-12-18T16:49:55.735Z,1.90
2018-12-18T16:52:21.598Z,2.73
2018-12-18T16:54:47.541Z,2.77
2018-12-18T16:57:15.953Z,3.57
2018-12-18T16:59:41.826Z,2.70
2018-12-18T17:02:10.794Z,3.00
2018-12-18T17:04:36.784Z,2.65
2018-12-18T17:07:07.313Z,2.50
2018-12-18T17:09:33.272Z,3.15
2018-12-18T17:11:59.269Z,3.20
2018-12-18T17:14:25.198Z,3.20
2018-12-18T17:16:51.116Z,3.40
2018-12-18T17:19:18.870Z,2.93
2018-12-18T17:21:44.928Z,3.45
2018-12-18T17:24:12.215Z,3.03
2018-12-18T17:26:38.129Z,2.65
2018-12-18T17:29:06.642Z,3.37
2018-12-18T17:31:32.543Z,2.75
2018-12-18T17:34:01.265Z,2.50
2018-12-18T17:36:27.188Z,2.98
2018-12-18T17:38:55.935Z,3.03
2018-12-18T17:41:21.871Z,2.37
2018-12-18T17:43:50.938Z,2.10
2018-12-18T17:46:16.884Z,2.62
2018-12-18T17:48:42.810Z,2.70
2018-12-18T17:51:08.683Z,2.20
2018-12-18T17:53:34.586Z,2.87
2018-12-18T17:56:03.871Z,2.60
2018-12-18T17:58:30.852Z,3.85
2018-12-18T18:00:57.547Z,3.12
2018-12-18T18:03:23.449Z,3.98
2018-12-18T18:05:53.219Z,3.17
2018-12-18T18:08:19.153Z,3.30
2018-12-18T18:10:48.180Z,3.43
2018-12-18T18:13:14.185Z,3.50
2018-12-18T18:15:41.819Z,3.60
2018-12-18T18:18:07.707Z,4.00
2018-12-18T18:20:37.111Z,3.10
2018-12-18T18:23:03.032Z,3.85
2018-12-18T18:25:28.937Z,8.20
2018-12-18T18:27:55.183Z,3.40
2018-12-18T18:30:21.391Z,4.33
2018-12-18T18:32:48.052Z,4.00
2018-12-18T18:35:16.342Z,3.90
2018-12-18T18:37:49.432Z,3.87
2018-12-18T18:40:11.628Z,3.10
2018-12-18T18:42:37.529Z,3.53
2018-12-18T18:45:03.777Z,3.57
2018-12-18T18:47:32.595Z,3.52
2018-12-18T18:49:58.508Z,3.37
2018-12-18T18:52:27.392Z,3.60
2018-12-18T18:54:53.284Z,4.10
2018-12-18T18:57:23.150Z,4.50
2018-12-18T18:59:51.056Z,3.72
2018-12-18T19:02:16.948Z,3.83
2018-12-18T19:04:42.837Z,8.43
2018-12-18T19:07:08.809Z,6.10
2018-12-18T19:09:34.713Z,4.67
2018-12-18T19:12:00.908Z,5.60
2018-12-18T19:14:28.546Z,4.28
2018-12-18T19:16:54.410Z,5.78
2018-12-18T19:19:23.178Z,7.83
2018-12-18T19:21:50.892Z,5.37
2018-12-18T19:24:18.142Z,4.00
2018-12-18T19:26:44.032Z,4.92
2018-12-18T19:29:13.948Z,3.77
2018-12-18T19:31:40.799Z,4.45
2018-12-18T19:34:07.501Z,5.97
2018-12-18T19:36:33.773Z,13.80
2018-12-18T19:38:59.695Z,6.08
2018-12-18T19:41:25.609Z,6.07
2018-12-18T19:43:51.494Z,7.13
2018-12-18T19:46:19.248Z,4.80
2018-12-18T19:48:45.280Z,4.70
2018-12-18T19:51:15.273Z,5.10
2018-12-18T19:53:41.191Z,4.67
2018-12-18T19:56:08.927Z,5.13
2018-12-18T19:58:34.804Z,4.83
2018-12-18T20:01:04.028Z,4.97
2018-12-18T20:03:29.906Z,4.45
2018-12-18T20:05:59.339Z,5.17
2018-12-18T20:08:25.231Z,4.55
2018-12-18T20:10:52.625Z,4.67
2018-12-18T20:13:19.987Z,4.65
2018-12-18T20:15:45.985Z,5.58
2018-12-18T20:18:11.913Z,5.37
2018-12-18T20:20:37.794Z,5.80
2018-12-18T20:23:04.272Z,3.73
2018-12-18T20:25:30.145Z,4.55
2018-12-18T20:28:00.908Z,4.40
2018-12-18T20:30:36.478Z,4.58
2018-12-18T20:33:02.533Z,3.35
2018-12-18T20:35:28.387Z,4.10
2018-12-18T20:37:54.303Z,3.57
2018-12-18T20:40:20.171Z,3.63
2018-12-18T20:42:46.031Z,4.30
2018-12-18T20:45:12.109Z,5.00
2018-12-18T20:47:37.962Z,4.85
2018-12-18T20:50:05.127Z,3.67
2018-12-18T20:52:31.000Z,4.22
2018-12-18T20:54:56.863Z,3.67
2018-12-18T20:57:22.793Z,4.80
2018-12-18T20:59:49.574Z,4.73
2018-12-18T21:02:15.467Z,5.12
2018-12-18T21:04:44.208Z,4.50
2018-12-18T21:07:10.161Z,3.83
2018-12-18T21:09:39.073Z,4.43
2018-12-18T21:12:05.004Z,4.60
2018-12-18T21:14:33.918Z,4.90
2018-12-18T21:16:59.825Z,4.45
2018-12-18T21:19:28.269Z,4.57
2018-12-18T21:21:54.244Z,4.97
2018-12-18T21:24:23.343Z,5.72
2018-12-18T21:26:49.216Z,5.17
2018-12-18T21:29:15.142Z,4.70
2018-12-18T21:31:41.042Z,5.20
2018-12-18T21:34:07.702Z,4.75
2018-12-18T21:36:34.947Z,4.50
2018-12-18T21:39:00.825Z,5.10
2018-12-18T21:41:30.673Z,3.90
2018-12-18T21:43:56.556Z,4.45
2018-12-18T21:46:24.333Z,5.40
2018-12-18T21:48:50.212Z,4.90
2018-12-18T21:51:19.798Z,3.50
2018-12-18T21:53:45.828Z,4.58
2018-12-18T21:56:15.059Z,3.80
2018-12-18T21:58:40.953Z,4.53
2018-12-18T22:01:08.756Z,4.10
2018-12-18T22:03:34.695Z,4.45
2018-12-18T22:06:00.578Z,4.10
2018-12-18T22:08:26.468Z,5.27
2018-12-18T22:10:52.375Z,4.30
2018-12-18T22:13:21.436Z,4.47
2018-12-18T22:15:47.278Z,3.60
2018-12-18T22:18:15.209Z,4.53
2018-12-18T22:20:41.122Z,4.50
2018-12-18T22:23:10.511Z,4.93
2018-12-18T22:25:38.455Z,4.53
2018-12-18T22:28:05.006Z,5.62
2018-12-18T22:30:30.916Z,4.08
2018-12-18T22:33:00.449Z,4.57
2018-12-18T22:35:26.337Z,3.77
2018-12-18T22:37:54.140Z,3.83
2018-12-18T22:40:20.129Z,3.62
2018-12-18T22:42:46.021Z,4.37
2018-12-18T22:45:11.921Z,3.63
2018-12-18T22:47:37.925Z,4.53
2018-12-18T22:50:07.070Z,3.80
2018-12-18T22:52:32.999Z,3.65
2018-12-18T22:55:00.926Z,4.70
2018-12-18T22:57:28.168Z,3.10
2018-12-18T22:59:56.301Z,4.30
2018-12-18T23:02:22.271Z,4.53
2018-12-18T23:04:59.574Z,3.97
2018-12-18T23:07:25.697Z,3.65
2018-12-18T23:09:51.579Z,3.37
2018-12-18T23:12:17.481Z,4.10
2018-12-18T23:14:43.744Z,3.57
2018-12-18T23:17:09.640Z,4.50
2018-12-18T23:19:35.689Z,3.85
2018-12-18T23:22:01.577Z,3.57
2018-12-18T23:24:27.476Z,3.47
2018-12-18T23:26:53.331Z,3.37
2018-12-18T23:29:19.226Z,4.00
2018-12-18T23:31:46.143Z,2.97
2018-12-18T23:34:12.031Z,3.90
2018-12-18T23:36:43.114Z,3.80
2018-12-18T23:39:09.124Z,3.25
2018-12-18T23:41:36.566Z,3.42
2018-12-18T23:44:02.695Z,3.37
2018-12-18T23:46:30.205Z,4.03
2018-12-18T23:48:56.128Z,3.25
2018-12-18T23:51:25.858Z,3.60
2018-12-18T23:53:51.744Z,3.12
2018-12-18T23:56:17.634Z,3.17
2018-12-18T23:58:43.519Z,2.77
